createdAt,value
2016-10-11T00:00:59.235Z,10.45
2016-10-11T00:01:59.317Z,10.43
2016-10-11T00:02:59.266Z,10.48
2016-10-11T00:03:59.287Z,10.41
2016-10-11T00:04:59.305Z,10.51
2016-10-11T00:05:59.324Z,10.51
2016-10-11T00:06:59.337Z,10.48
2016-10-11T00:07:58.748Z,10.53
2016-10-11T00:08:59.388Z,10.53
2016-10-11T00:09:59.084Z,10.48
2016-10-11T00:10:59.528Z,10.53
2016-10-11T00:11:59.441Z,10.55
2016-10-11T00:12:59.468Z,10.61
2016-10-11T00:13:59.477Z,10.46
2016-10-11T00:14:59.548Z,10.57
2016-10-11T00:15:59.516Z,10.53
2016-10-11T00:16:59.526Z,10.45
2016-10-11T00:17:59.538Z,10.48
2016-10-11T00:18:59.564Z,10.51
2016-10-11T00:19:59.587Z,10.48
2016-10-11T00:20:59.610Z,10.53
2016-10-11T00:21:59.308Z,10.58
2016-10-11T00:22:59.666Z,10.51
2016-10-11T00:23:59.668Z,10.53
2016-10-11T00:24:59.369Z,10.55
2016-10-11T00:25:59.708Z,10.55
2016-10-11T00:26:59.708Z,10.46
2016-10-11T00:27:59.736Z,10.61
2016-10-11T00:28:59.756Z,10.61
2016-10-11T00:29:59.766Z,10.61
2016-10-11T00:30:59.804Z,10.61
2016-10-11T00:31:59.823Z,10.61
2016-10-11T00:32:59.833Z,10.59
2016-10-11T00:33:59.849Z,10.53
2016-10-11T00:34:59.868Z,10.55
2016-10-11T00:35:59.887Z,10.45
2016-10-11T00:36:59.980Z,10.59
2016-10-11T00:37:59.929Z,10.51
2016-10-11T00:38:59.638Z,10.46
2016-10-11T00:39:59.959Z,10.46
2016-10-11T00:40:59.669Z,10.46
2016-10-11T00:42:00.011Z,10.46
2016-10-11T00:43:00.019Z,10.46
2016-10-11T00:44:00.035Z,10.45
2016-10-11T00:44:59.747Z,10.39
2016-10-11T00:46:00.076Z,10.34
2016-10-11T00:47:00.089Z,10.36
2016-10-11T00:48:00.109Z,10.36
2016-10-11T00:49:00.132Z,10.43
2016-10-11T00:50:00.192Z,10.41
2016-10-11T00:50:59.897Z,10.41
2016-10-11T00:52:00.288Z,10.48
2016-10-11T00:53:00.208Z,10.53
2016-10-11T00:54:00.234Z,10.53
2016-10-11T00:54:59.939Z,10.49
2016-10-11T00:56:00.317Z,10.55
2016-10-11T00:57:00.268Z,10.61
2016-10-11T00:58:00.288Z,10.61
2016-10-11T00:59:00.317Z,10.61
2016-10-11T01:00:00.341Z,10.68
2016-10-11T01:01:00.343Z,10.62
2016-10-11T01:02:00.368Z,10.68
2016-10-11T01:03:00.497Z,10.64
2016-10-11T01:04:00.439Z,10.65
2016-10-11T01:05:00.428Z,10.67
2016-10-11T01:06:00.138Z,10.65
2016-10-11T01:07:00.480Z,10.62
2016-10-11T01:08:00.486Z,10.76
2016-10-11T01:09:00.548Z,10.77
2016-10-11T01:10:00.554Z,10.75
2016-10-11T01:11:00.540Z,10.72
2016-10-11T01:12:00.570Z,10.77
2016-10-11T01:13:00.589Z,10.72
2016-10-11T01:14:00.608Z,10.75
2016-10-11T01:15:00.759Z,10.67
2016-10-11T01:16:00.748Z,10.68
2016-10-11T01:17:00.682Z,10.72
2016-10-11T01:18:00.679Z,10.77
2016-10-11T01:19:00.410Z,10.8
2016-10-11T01:20:00.707Z,10.77
2016-10-11T01:21:00.417Z,10.79
2016-10-11T01:22:00.775Z,10.76
2016-10-11T01:23:00.768Z,10.77
2016-10-11T01:24:00.788Z,10.72
2016-10-11T01:25:00.500Z,10.76
2016-10-11T01:26:00.820Z,10.76
2016-10-11T01:27:00.839Z,10.79
2016-10-11T01:28:00.862Z,10.79
2016-10-11T01:29:00.987Z,10.75
2016-10-11T01:30:00.601Z,10.76
2016-10-11T01:31:00.920Z,10.77
2016-10-11T01:32:00.999Z,10.75
2016-10-11T01:33:00.651Z,10.79
2016-10-11T01:34:00.999Z,10.71
2016-10-11T01:35:00.990Z,10.76
2016-10-11T01:36:00.702Z,10.8
2016-10-11T01:37:01.019Z,10.77
2016-10-11T01:38:01.051Z,10.76
2016-10-11T01:39:01.057Z,10.76
2016-10-11T01:40:01.073Z,10.77
2016-10-11T01:41:01.105Z,10.75
2016-10-11T01:42:01.279Z,10.71
2016-10-11T01:43:01.152Z,10.79
2016-10-11T01:44:01.179Z,10.87
2016-10-11T01:45:01.180Z,10.83
2016-10-11T01:46:01.251Z,10.83
2016-10-11T01:47:00.910Z,10.84
2016-10-11T01:48:01.235Z,10.82
2016-10-11T01:49:01.248Z,10.84
2016-10-11T01:50:01.262Z,10.87
2016-10-11T01:51:01.285Z,10.86
2016-10-11T01:52:01.349Z,10.95
2016-10-11T01:53:01.343Z,10.87
2016-10-11T01:54:01.349Z,10.9
2016-10-11T01:55:01.382Z,10.9
2016-10-11T01:56:01.397Z,10.97
2016-10-11T01:57:01.407Z,10.92
2016-10-11T01:58:01.416Z,10.87
2016-10-11T01:59:01.490Z,10.98
2016-10-11T02:00:01.157Z,10.92
2016-10-11T02:01:01.476Z,10.97
2016-10-11T02:02:01.497Z,10.9
2016-10-11T02:03:01.512Z,10.98
2016-10-11T02:04:01.535Z,10.97
2016-10-11T02:05:01.558Z,10.95
2016-10-11T02:06:01.573Z,10.95
2016-10-11T02:07:01.612Z,10.95
2016-10-11T02:08:01.628Z,10.84
2016-10-11T02:09:01.628Z,10.77
2016-10-11T02:10:01.749Z,10.77
2016-10-11T02:11:01.669Z,10.71
2016-10-11T02:12:01.685Z,10.77
2016-10-11T02:13:01.717Z,10.79
2016-10-11T02:14:01.724Z,10.77
2016-10-11T02:15:01.750Z,10.72
2016-10-11T02:16:01.759Z,10.77
2016-10-11T02:17:01.782Z,10.72
2016-10-11T02:18:01.801Z,10.72
2016-10-11T02:19:01.820Z,10.77
2016-10-11T02:20:01.526Z,10.77
2016-10-11T02:21:01.845Z,10.68
2016-10-11T02:22:01.881Z,10.72
2016-10-11T02:23:01.898Z,10.64
2016-10-11T02:24:01.919Z,10.68
2016-10-11T02:25:01.935Z,10.67
2016-10-11T02:26:01.951Z,10.48
2016-10-11T02:27:01.651Z,10.57
2016-10-11T02:28:01.682Z,10.49
2016-10-11T02:29:02.009Z,10.53
2016-10-11T02:30:02.025Z,10.48
2016-10-11T02:31:01.753Z,10.57
2016-10-11T02:32:02.070Z,10.62
2016-10-11T02:33:02.083Z,10.65
2016-10-11T02:34:02.111Z,10.59
2016-10-11T02:35:02.140Z,10.67
2016-10-11T02:36:02.147Z,10.59
2016-10-11T02:37:02.156Z,10.61
2016-10-11T02:38:02.187Z,10.61
2016-10-11T02:39:02.209Z,10.58
2016-10-11T02:40:02.221Z,10.57
2016-10-11T02:41:02.230Z,10.61
2016-10-11T02:42:02.268Z,10.65
2016-10-11T02:43:02.282Z,10.61
2016-10-11T02:44:02.301Z,10.61
2016-10-11T02:45:02.312Z,10.61
2016-10-11T02:46:02.422Z,10.59
2016-10-11T02:47:02.048Z,10.64
2016-10-11T02:48:02.443Z,10.79
2016-10-11T02:49:02.441Z,10.76
2016-10-11T02:50:02.096Z,10.71
2016-10-11T02:51:02.429Z,10.69
2016-10-11T02:52:02.496Z,10.76
2016-10-11T02:53:02.473Z,10.72
2016-10-11T02:54:02.490Z,10.77
2016-10-11T02:55:02.528Z,10.82
2016-10-11T02:56:02.519Z,10.82
2016-10-11T02:57:02.543Z,10.83
2016-10-11T02:58:02.800Z,10.84
2016-10-11T02:59:02.589Z,10.92
2016-10-11T03:00:02.602Z,10.8
2016-10-11T03:01:02.682Z,10.71
2016-10-11T03:02:02.651Z,10.8
2016-10-11T03:03:02.712Z,10.72
2016-10-11T03:04:02.772Z,10.84
2016-10-11T03:05:02.693Z,10.89
2016-10-11T03:06:02.710Z,10.89
2016-10-11T03:07:02.720Z,10.86
2016-10-11T03:08:02.739Z,10.87
2016-10-11T03:09:02.547Z,10.9
2016-10-11T03:10:02.791Z,10.9
2016-10-11T03:11:02.819Z,10.92
2016-10-11T03:12:02.960Z,10.86
2016-10-11T03:13:02.951Z,10.87
2016-10-11T03:14:02.878Z,10.89
2016-10-11T03:15:02.976Z,11.01
2016-10-11T03:16:03.002Z,10.92
2016-10-11T03:17:02.611Z,10.9
2016-10-11T03:18:02.992Z,10.87
2016-10-11T03:19:02.970Z,10.83
2016-10-11T03:20:02.749Z,10.87
2016-10-11T03:21:02.996Z,10.9
2016-10-11T03:22:03.005Z,10.82
2016-10-11T03:23:03.037Z,10.86
2016-10-11T03:24:03.074Z,10.87
2016-10-11T03:25:03.178Z,10.9
2016-10-11T03:26:03.076Z,10.92
2016-10-11T03:27:03.111Z,10.92
2016-10-11T03:28:03.152Z,10.9
2016-10-11T03:29:03.147Z,10.92
2016-10-11T03:30:03.168Z,10.9
2016-10-11T03:31:03.194Z,10.82
2016-10-11T03:32:03.210Z,10.79
2016-10-11T03:33:03.239Z,10.83
2016-10-11T03:34:03.268Z,10.77
2016-10-11T03:35:03.270Z,10.83
2016-10-11T03:36:03.277Z,10.9
2016-10-11T03:37:03.309Z,10.92
2016-10-11T03:38:03.321Z,10.84
2016-10-11T03:39:03.479Z,10.86
2016-10-11T03:40:03.381Z,10.92
2016-10-11T03:41:03.428Z,10.82
2016-10-11T03:42:03.387Z,10.86
2016-10-11T03:43:03.405Z,10.82
2016-10-11T03:44:03.450Z,10.84
2016-10-11T03:45:03.464Z,10.87
2016-10-11T03:46:03.466Z,10.89
2016-10-11T03:47:03.490Z,10.82
2016-10-11T03:48:03.520Z,10.95
2016-10-11T03:49:03.532Z,10.83
2016-10-11T03:50:03.557Z,10.92
2016-10-11T03:51:03.570Z,10.89
2016-10-11T03:52:03.869Z,10.9
2016-10-11T03:53:03.610Z,10.83
2016-10-11T03:54:03.629Z,10.89
2016-10-11T03:55:03.632Z,10.89
2016-10-11T03:56:03.357Z,10.89
2016-10-11T03:57:03.941Z,10.95
2016-10-11T03:58:03.934Z,10.82
2016-10-11T03:59:04.068Z,10.76
2016-10-11T04:00:03.738Z,10.75
2016-10-11T04:01:04.154Z,10.72
2016-10-11T04:02:03.984Z,10.69
2016-10-11T04:03:04.115Z,10.72
2016-10-11T04:04:03.960Z,10.72
2016-10-11T04:05:04.039Z,10.69
2016-10-11T04:06:03.955Z,10.76
2016-10-11T04:07:04.083Z,10.68
2016-10-11T04:08:03.882Z,10.68
2016-10-11T04:09:04.001Z,10.75
2016-10-11T04:10:04.006Z,10.69
2016-10-11T04:11:03.634Z,10.64
2016-10-11T04:12:04.006Z,10.61
2016-10-11T04:13:04.022Z,10.62
2016-10-11T04:14:04.054Z,10.62
2016-10-11T04:15:04.020Z,10.69
2016-10-11T04:16:04.240Z,10.72
2016-10-11T04:17:04.094Z,10.65
2016-10-11T04:18:03.754Z,10.69
2016-10-11T04:19:04.093Z,10.72
2016-10-11T04:20:04.214Z,10.68
2016-10-11T04:21:04.152Z,10.61
2016-10-11T04:22:04.400Z,10.62
2016-10-11T04:23:04.179Z,10.65
2016-10-11T04:24:04.282Z,10.62
2016-10-11T04:25:04.218Z,10.68
2016-10-11T04:26:04.327Z,10.67
2016-10-11T04:27:04.251Z,10.67
2016-10-11T04:28:04.410Z,10.65
2016-10-11T04:29:04.296Z,10.59
2016-10-11T04:30:04.340Z,10.62
2016-10-11T04:31:04.432Z,10.61
2016-10-11T04:32:04.387Z,10.53
2016-10-11T04:33:04.441Z,10.59
2016-10-11T04:34:04.410Z,10.55
2016-10-11T04:35:04.431Z,10.55
2016-10-11T04:36:04.409Z,10.48
2016-10-11T04:37:04.440Z,10.49
2016-10-11T04:38:04.457Z,10.58
2016-10-11T04:39:04.467Z,10.48
2016-10-11T04:40:04.496Z,10.53
2016-10-11T04:41:04.618Z,10.48
2016-10-11T04:42:04.636Z,10.55
2016-10-11T04:43:04.650Z,10.51
2016-10-11T04:44:04.598Z,10.42
2016-10-11T04:45:04.624Z,10.39
2016-10-11T04:46:04.611Z,10.49
2016-10-11T04:47:04.671Z,10.53
2016-10-11T04:48:04.678Z,10.53
2016-10-11T04:49:04.342Z,10.53
2016-10-11T04:50:04.682Z,10.49
2016-10-11T04:51:04.929Z,10.48
2016-10-11T04:52:04.721Z,10.55
2016-10-11T04:53:04.729Z,10.57
2016-10-11T04:54:04.857Z,10.48
2016-10-11T04:55:04.780Z,10.53
2016-10-11T04:56:04.880Z,10.45
2016-10-11T04:57:04.638Z,10.45
2016-10-11T04:58:04.889Z,10.39
2016-10-11T04:59:04.850Z,10.28
2016-10-11T05:00:04.918Z,10.25
2016-10-11T05:01:04.907Z,10.33
2016-10-11T05:02:04.947Z,10.23
2016-10-11T05:03:04.915Z,10.15
2016-10-11T05:04:04.959Z,10.15
2016-10-11T05:05:04.958Z,10.05
2016-10-11T05:06:04.974Z,10.05
2016-10-11T05:07:04.675Z,10.07
2016-10-11T05:08:05.027Z,10.07
2016-10-11T05:09:05.126Z,10.06
2016-10-11T05:10:04.865Z,10.06
2016-10-11T05:11:05.108Z,10.02
2016-10-11T05:12:04.865Z,10.02
2016-10-11T05:13:05.107Z,9.95
2016-10-11T05:14:04.510Z,10
2016-10-11T05:15:05.132Z,9.94
2016-10-11T05:16:04.537Z,9.95
2016-10-11T05:17:05.177Z,9.91
2016-10-11T05:18:05.180Z,9.99
2016-10-11T05:19:05.209Z,9.9
2016-10-11T05:20:05.239Z,9.87
2016-10-11T05:21:05.349Z,9.87
2016-10-11T05:22:04.947Z,9.87
2016-10-11T05:23:05.353Z,9.95
2016-10-11T05:24:05.296Z,9.91
2016-10-11T05:25:05.034Z,9.84
2016-10-11T05:26:05.339Z,9.82
2016-10-11T05:27:05.367Z,9.82
2016-10-11T05:28:05.388Z,9.88
2016-10-11T05:29:05.099Z,9.85
2016-10-11T05:30:05.435Z,9.8
2016-10-11T05:31:05.419Z,9.91
2016-10-11T05:32:05.454Z,9.87
2016-10-11T05:33:05.467Z,9.8
2016-10-11T05:34:05.699Z,9.81
2016-10-11T05:35:05.491Z,9.85
2016-10-11T05:36:05.612Z,9.91
2016-10-11T05:37:05.539Z,9.92
2016-10-11T05:38:05.564Z,9.9
2016-10-11T05:39:05.564Z,9.85
2016-10-11T05:40:05.600Z,9.84
2016-10-11T05:41:05.609Z,9.85
2016-10-11T05:42:05.630Z,9.87
2016-10-11T05:43:05.669Z,9.81
2016-10-11T05:44:05.358Z,9.88
2016-10-11T05:45:05.691Z,9.88
2016-10-11T05:46:05.713Z,9.8
2016-10-11T05:47:05.718Z,9.85
2016-10-11T05:48:05.739Z,9.81
2016-10-11T05:49:05.769Z,9.85
2016-10-11T05:50:05.769Z,9.84
2016-10-11T05:51:05.785Z,9.8
2016-10-11T05:52:05.805Z,9.85
2016-10-11T05:53:05.862Z,9.76
2016-10-11T05:54:05.859Z,9.73
2016-10-11T05:55:05.891Z,9.8
2016-10-11T05:56:05.883Z,9.76
2016-10-11T05:57:05.598Z,9.77
2016-10-11T05:58:05.932Z,9.81
2016-10-11T05:59:05.936Z,9.88
2016-10-11T06:00:05.955Z,9.82
2016-10-11T06:01:05.987Z,9.84
2016-10-11T06:02:06.050Z,9.85
2016-10-11T06:03:06.011Z,9.87
2016-10-11T06:04:06.037Z,9.9
2016-10-11T06:05:06.072Z,9.94
2016-10-11T06:06:06.098Z,9.92
2016-10-11T06:07:06.083Z,9.92
2016-10-11T06:08:05.796Z,9.88
2016-10-11T06:09:06.118Z,9.94
2016-10-11T06:10:06.137Z,9.94
2016-10-11T06:11:06.147Z,9.92
2016-10-11T06:12:06.577Z,9.95
2016-10-11T06:13:06.190Z,9.97
2016-10-11T06:14:06.208Z,9.9
2016-10-11T06:15:06.256Z,9.94
2016-10-11T06:16:05.926Z,9.92
2016-10-11T06:17:06.268Z,9.99
2016-10-11T06:18:05.977Z,9.99
2016-10-11T06:19:06.294Z,9.9
2016-10-11T06:20:06.315Z,9.9
2016-10-11T06:21:06.314Z,9.97
2016-10-11T06:22:06.347Z,9.9
2016-10-11T06:23:06.378Z,9.9
2016-10-11T06:24:06.379Z,9.88
2016-10-11T06:25:06.504Z,9.9
2016-10-11T06:26:06.426Z,9.95
2016-10-11T06:27:06.521Z,9.97
2016-10-11T06:28:06.467Z,9.92
2016-10-11T06:29:06.496Z,10.07
2016-10-11T06:30:06.505Z,10.07
2016-10-11T06:31:06.516Z,10.06
2016-10-11T06:32:06.525Z,10.07
2016-10-11T06:33:06.541Z,10.23
2016-10-11T06:34:06.566Z,10.13
2016-10-11T06:35:06.581Z,10.13
2016-10-11T06:36:06.297Z,10.15
2016-10-11T06:37:06.629Z,10.15
2016-10-11T06:38:06.654Z,10.17
2016-10-11T06:39:06.709Z,10.24
2016-10-11T06:40:06.670Z,10.18
2016-10-11T06:41:06.758Z,10.17
2016-10-11T06:42:06.413Z,10.2
2016-10-11T06:43:06.841Z,10.31
2016-10-11T06:44:06.806Z,10.23
2016-10-11T06:45:06.797Z,10.31
2016-10-11T06:46:06.832Z,10.28
2016-10-11T06:47:06.821Z,10.38
2016-10-11T06:48:06.832Z,10.27
2016-10-11T06:49:06.841Z,10.3
2016-10-11T06:50:06.865Z,10.31
2016-10-11T06:51:07.019Z,10.43
2016-10-11T06:52:07.006Z,10.38
2016-10-11T06:53:07.018Z,10.42
2016-10-11T06:54:07.044Z,10.55
2016-10-11T06:55:06.969Z,10.58
2016-10-11T06:56:07.019Z,10.62
2016-10-11T06:57:06.705Z,10.61
2016-10-11T06:58:07.075Z,10.69
2016-10-11T06:59:07.043Z,10.65
2016-10-11T07:00:07.077Z,10.67
2016-10-11T07:01:07.052Z,10.76
2016-10-11T07:02:06.925Z,10.67
2016-10-11T07:03:07.106Z,10.76
2016-10-11T07:04:07.128Z,10.77
2016-10-11T07:05:07.230Z,10.75
2016-10-11T07:06:07.254Z,10.62
2016-10-11T07:07:07.269Z,10.65
2016-10-11T07:08:07.195Z,10.65
2016-10-11T07:09:07.272Z,10.68
2016-10-11T07:10:07.248Z,10.72
2016-10-11T07:11:07.279Z,10.86
2016-10-11T07:12:07.286Z,10.77
2016-10-11T07:13:07.295Z,10.77
2016-10-11T07:14:07.313Z,10.75
2016-10-11T07:15:07.010Z,10.87
2016-10-11T07:16:07.356Z,10.9
2016-10-11T07:17:07.353Z,10.79
2016-10-11T07:18:07.126Z,10.84
2016-10-11T07:19:07.398Z,10.86
2016-10-11T07:20:07.494Z,10.95
2016-10-11T07:21:07.457Z,10.94
2016-10-11T07:22:07.474Z,10.83
2016-10-11T07:23:07.476Z,10.9
2016-10-11T07:24:07.494Z,10.89
2016-10-11T07:25:07.537Z,10.97
2016-10-11T07:26:07.809Z,11.05
2016-10-11T07:27:07.801Z,11.18
2016-10-11T07:28:07.856Z,11.15
2016-10-11T07:29:07.857Z,11.19
2016-10-11T07:30:07.827Z,11.3
2016-10-11T07:31:07.846Z,11.31
2016-10-11T07:32:07.863Z,11.33
2016-10-11T07:33:07.857Z,11.35
2016-10-11T07:34:07.838Z,11.22
2016-10-11T07:35:07.859Z,11.2
2016-10-11T07:36:07.821Z,11.07
2016-10-11T07:37:07.862Z,11.07
2016-10-11T07:38:07.929Z,11.07
2016-10-11T07:39:07.881Z,11.12
2016-10-11T07:40:07.853Z,11.2
2016-10-11T07:41:07.947Z,11.26
2016-10-11T07:42:08.002Z,11.3
2016-10-11T07:43:07.859Z,11.34
2016-10-11T07:44:07.944Z,11.4
2016-10-11T07:45:07.909Z,11.43
2016-10-11T07:46:07.921Z,11.6
2016-10-11T07:47:07.945Z,11.63
2016-10-11T07:48:07.953Z,11.55
2016-10-11T07:49:08.246Z,11.53
2016-10-11T07:50:07.993Z,11.35
2016-10-11T07:51:08.048Z,11.44
2016-10-11T07:52:08.039Z,11.44
2016-10-11T07:53:08.069Z,11.53
2016-10-11T07:54:08.077Z,11.58
2016-10-11T07:55:08.086Z,11.63
2016-10-11T07:56:08.509Z,11.8
2016-10-11T07:57:08.202Z,11.86
2016-10-11T07:58:08.145Z,11.96
2016-10-11T07:59:08.285Z,12
2016-10-11T08:00:08.189Z,12.14
2016-10-11T08:01:08.210Z,12.11
2016-10-11T08:02:08.225Z,12.15
2016-10-11T08:03:08.237Z,12.36
2016-10-11T08:04:08.279Z,12.17
2016-10-11T08:05:08.314Z,12.08
2016-10-11T08:06:08.309Z,11.96
2016-10-11T08:07:08.330Z,12.05
2016-10-11T08:08:08.459Z,12.18
2016-10-11T08:09:08.368Z,12.1
2016-10-11T08:10:08.415Z,12.02
2016-10-11T08:11:08.416Z,12.15
2016-10-11T08:12:08.426Z,12.23
2016-10-11T08:13:08.458Z,12.2
2016-10-11T08:14:08.493Z,12.15
2016-10-11T08:15:08.509Z,12.08
2016-10-11T08:16:08.517Z,12.03
2016-10-11T08:17:08.518Z,12.07
2016-10-11T08:18:08.538Z,12.17
2016-10-11T08:19:08.567Z,12.32
2016-10-11T08:20:08.601Z,12.33
2016-10-11T08:21:08.291Z,12.33
2016-10-11T08:22:08.646Z,12.3
2016-10-11T08:23:08.679Z,12.3
2016-10-11T08:24:08.347Z,12.25
2016-10-11T08:25:08.365Z,12.32
2016-10-11T08:26:08.400Z,12.29
2016-10-11T08:27:08.772Z,12.29
2016-10-11T08:28:08.788Z,12.3
2016-10-11T08:29:08.761Z,12.11
2016-10-11T08:30:08.799Z,12.12
2016-10-11T08:31:08.807Z,12.12
2016-10-11T08:32:08.840Z,12.14
2016-10-11T08:33:08.964Z,11.88
2016-10-11T08:34:08.849Z,11.97
2016-10-11T08:35:08.955Z,12
2016-10-11T08:36:08.934Z,12.07
2016-10-11T08:37:08.949Z,11.85
2016-10-11T08:38:08.950Z,11.88
2016-10-11T08:39:09.163Z,11.93
2016-10-11T08:40:08.987Z,11.91
2016-10-11T08:41:09.009Z,11.95
2016-10-11T08:42:09.036Z,11.97
2016-10-11T08:43:09.041Z,11.99
2016-10-11T08:44:09.059Z,12.14
2016-10-11T08:45:09.081Z,12.2
2016-10-11T08:46:08.926Z,12.36
2016-10-11T08:47:09.128Z,12.33
2016-10-11T08:48:09.259Z,12.26
2016-10-11T08:49:09.163Z,12.23
2016-10-11T08:50:09.207Z,12.12
2016-10-11T08:51:09.195Z,12.1
2016-10-11T08:52:09.224Z,12.08
2016-10-11T08:53:09.285Z,12.07
2016-10-11T08:54:09.259Z,11.95
2016-10-11T08:55:09.287Z,11.97
2016-10-11T08:56:09.292Z,11.97
2016-10-11T08:57:09.338Z,11.96
2016-10-11T08:58:09.352Z,11.96
2016-10-11T08:59:09.387Z,12
2016-10-11T09:00:09.478Z,11.95
2016-10-11T09:01:09.480Z,12.02
2016-10-11T09:02:09.436Z,11.85
2016-10-11T09:03:09.491Z,11.96
2016-10-11T09:04:09.160Z,12.05
2016-10-11T09:05:09.487Z,12.08
2016-10-11T09:06:09.509Z,11.96
2016-10-11T09:07:09.509Z,12.08
2016-10-11T09:08:09.570Z,12.07
2016-10-11T09:09:09.559Z,12.1
2016-10-11T09:10:09.599Z,12.15
2016-10-11T09:11:09.615Z,12.02
2016-10-11T09:12:09.629Z,12
2016-10-11T09:13:09.760Z,11.97
2016-10-11T09:14:09.655Z,11.85
2016-10-11T09:15:09.723Z,11.85
2016-10-11T09:16:09.698Z,11.89
2016-10-11T09:17:09.710Z,11.97
2016-10-11T09:18:09.733Z,12.02
2016-10-11T09:19:09.780Z,11.97
2016-10-11T09:20:09.780Z,11.99
2016-10-11T09:21:09.808Z,12.02
2016-10-11T09:22:09.825Z,12.02
2016-10-11T09:23:09.839Z,12.17
2016-10-11T09:24:09.900Z,12.17
2016-10-11T09:25:09.873Z,12.17
2016-10-11T09:26:09.921Z,12.2
2016-10-11T09:27:09.940Z,12.36
2016-10-11T09:28:09.628Z,12.33
2016-10-11T09:29:09.960Z,12.3
2016-10-11T09:30:09.978Z,12.26
2016-10-11T09:31:09.999Z,12.28
2016-10-11T09:32:10.015Z,12.29
2016-10-11T09:33:10.041Z,12.21
2016-10-11T09:34:10.048Z,12.23
2016-10-11T09:35:10.079Z,12.18
2016-10-11T09:36:10.110Z,12.29
2016-10-11T09:37:10.111Z,12.17
2016-10-11T09:38:09.831Z,12.05
2016-10-11T09:39:10.180Z,11.93
2016-10-11T09:40:10.178Z,11.81
2016-10-11T09:41:10.204Z,11.77
2016-10-11T09:42:10.215Z,11.68
2016-10-11T09:43:10.241Z,11.65
2016-10-11T09:44:09.942Z,11.71
2016-10-11T09:45:10.299Z,11.81
2016-10-11T09:46:10.297Z,11.77
2016-10-11T09:47:10.328Z,11.63
2016-10-11T09:48:10.350Z,11.7
2016-10-11T09:49:10.353Z,11.74
2016-10-11T09:50:10.480Z,11.74
2016-10-11T09:51:10.401Z,11.86
2016-10-11T09:52:10.446Z,11.81
2016-10-11T09:53:10.470Z,11.83
2016-10-11T09:54:10.540Z,11.81
2016-10-11T09:55:10.481Z,11.88
2016-10-11T09:56:10.491Z,11.96
2016-10-11T09:57:10.542Z,11.85
2016-10-11T09:58:10.552Z,11.96
2016-10-11T09:59:10.851Z,11.93
2016-10-11T10:00:10.584Z,11.95
2016-10-11T10:01:10.780Z,11.88
2016-10-11T10:02:10.638Z,11.89
2016-10-11T10:03:10.641Z,11.81
2016-10-11T10:04:10.388Z,11.83
2016-10-11T10:05:10.881Z,11.89
2016-10-11T10:06:10.747Z,11.85
2016-10-11T10:07:10.758Z,11.74
2016-10-11T10:08:10.753Z,11.88
2016-10-11T10:09:10.759Z,11.86
2016-10-11T10:10:10.789Z,11.81
2016-10-11T10:11:10.810Z,11.88
2016-10-11T10:12:10.840Z,11.68
2016-10-11T10:13:10.939Z,11.73
2016-10-11T10:14:10.851Z,11.71
2016-10-11T10:15:10.881Z,11.76
2016-10-11T10:16:10.886Z,11.58
2016-10-11T10:17:11.017Z,11.56
2016-10-11T10:18:11.000Z,11.59
2016-10-11T10:19:10.969Z,11.56
2016-10-11T10:20:10.974Z,11.76
2016-10-11T10:21:11.003Z,11.81
2016-10-11T10:22:11.001Z,11.95
2016-10-11T10:23:11.037Z,12.12
2016-10-11T10:24:11.049Z,12.21
2016-10-11T10:25:11.089Z,12.3
2016-10-11T10:26:11.134Z,12.3
2016-10-11T10:27:11.240Z,12.37
2016-10-11T10:28:10.844Z,12.3
2016-10-11T10:29:11.146Z,12.14
2016-10-11T10:30:11.219Z,12.15
2016-10-11T10:31:11.200Z,12.08
2016-10-11T10:32:11.202Z,12.08
2016-10-11T10:33:11.227Z,11.96
2016-10-11T10:34:11.281Z,11.99
2016-10-11T10:35:11.019Z,11.83
2016-10-11T10:36:11.291Z,11.74
2016-10-11T10:37:11.309Z,11.7
2016-10-11T10:38:11.078Z,11.7
2016-10-11T10:39:11.371Z,11.62
2016-10-11T10:40:10.739Z,11.59
2016-10-11T10:41:11.400Z,11.55
2016-10-11T10:42:11.485Z,11.56
2016-10-11T10:43:11.424Z,11.52
2016-10-11T10:44:11.456Z,11.53
2016-10-11T10:45:11.723Z,11.51
2016-10-11T10:46:11.803Z,11.51
2016-10-11T10:47:11.943Z,11.59
2016-10-11T10:48:11.718Z,11.56
2016-10-11T10:49:11.951Z,11.58
2016-10-11T10:50:11.261Z,11.58
2016-10-11T10:51:11.940Z,11.6
2016-10-11T10:52:11.826Z,11.77
2016-10-11T10:53:11.914Z,11.91
2016-10-11T10:54:11.792Z,11.86
2016-10-11T10:55:11.668Z,11.93
2016-10-11T10:56:11.828Z,11.85
2016-10-11T10:57:12.152Z,11.95
2016-10-11T10:58:11.505Z,12
2016-10-11T10:59:12.020Z,12
2016-10-11T11:00:11.820Z,12
2016-10-11T11:01:11.932Z,12
2016-10-11T11:02:11.786Z,12.03
2016-10-11T11:03:11.928Z,11.96
2016-10-11T11:04:11.997Z,12
2016-10-11T11:05:11.536Z,12.05
2016-10-11T11:06:11.928Z,12.08
2016-10-11T11:07:11.913Z,12.14
2016-10-11T11:08:12.130Z,12.15
2016-10-11T11:09:11.927Z,12.29
2016-10-11T11:10:12.119Z,12.29
2016-10-11T11:11:11.988Z,12.29
2016-10-11T11:12:11.832Z,12.36
2016-10-11T11:13:12.012Z,12.3
2016-10-11T11:14:12.186Z,12.35
2016-10-11T11:15:12.694Z,12.26
2016-10-11T11:16:12.129Z,12.12
2016-10-11T11:17:11.789Z,12.05
2016-10-11T11:18:12.117Z,12.02
2016-10-11T11:19:12.748Z,11.97
2016-10-11T11:20:12.151Z,12.05
2016-10-11T11:21:12.204Z,12.18
2016-10-11T11:22:12.201Z,12.14
2016-10-11T11:23:12.210Z,12.33
2016-10-11T11:24:12.235Z,12.61
2016-10-11T11:25:12.260Z,12.73
2016-10-11T11:26:12.273Z,12.83
2016-10-11T11:27:12.289Z,12.78
2016-10-11T11:28:12.318Z,12.57
2016-10-11T11:29:12.336Z,12.62
2016-10-11T11:30:12.443Z,12.73
2016-10-11T11:31:12.395Z,12.9
2016-10-11T11:32:12.961Z,12.87
2016-10-11T11:33:12.417Z,12.95
2016-10-11T11:34:12.481Z,13.16
2016-10-11T11:35:12.461Z,13.05
2016-10-11T11:36:12.471Z,13.2
2016-10-11T11:37:12.500Z,13.17
2016-10-11T11:38:12.510Z,13.23
2016-10-11T11:39:12.541Z,13.06
2016-10-11T11:40:12.553Z,12.94
2016-10-11T11:41:12.601Z,13.02
2016-10-11T11:42:12.624Z,13.05
2016-10-11T11:43:12.630Z,13.12
2016-10-11T11:44:12.663Z,13.09
2016-10-11T11:45:12.670Z,13.19
2016-10-11T11:46:12.393Z,13.21
2016-10-11T11:47:12.721Z,13.09
2016-10-11T11:48:12.714Z,13.23
2016-10-11T11:49:12.790Z,13.24
2016-10-11T11:50:12.760Z,13.2
2016-10-11T11:51:12.778Z,13.26
2016-10-11T11:52:12.803Z,13.33
2016-10-11T11:53:12.879Z,13.27
2016-10-11T11:54:12.963Z,13.28
2016-10-11T11:55:12.958Z,13.17
2016-10-11T11:56:12.941Z,13.13
2016-10-11T11:57:13.001Z,13.09
2016-10-11T11:58:12.929Z,13.17
2016-10-11T11:59:12.949Z,13.27
2016-10-11T12:00:12.982Z,13.43
2016-10-11T12:01:12.992Z,13.37
2016-10-11T12:02:13.005Z,13.39
2016-10-11T12:03:12.720Z,13.55
2016-10-11T12:04:13.455Z,13.61
2016-10-11T12:05:13.075Z,13.62
2016-10-11T12:06:13.203Z,13.73
2016-10-11T12:07:13.210Z,13.64
2016-10-11T12:08:13.159Z,13.57
2016-10-11T12:09:13.206Z,13.49
2016-10-11T12:10:12.868Z,13.57
2016-10-11T12:11:13.239Z,13.49
2016-10-11T12:12:13.220Z,13.4
2016-10-11T12:13:13.242Z,13.23
2016-10-11T12:14:13.329Z,13.26
2016-10-11T12:15:12.994Z,13.03
2016-10-11T12:16:13.317Z,13.05
2016-10-11T12:17:13.395Z,13.01
2016-10-11T12:18:13.398Z,13.12
2016-10-11T12:19:13.697Z,13.11
2016-10-11T12:20:13.438Z,13.03
2016-10-11T12:21:13.430Z,12.87
2016-10-11T12:22:13.532Z,13.02
2016-10-11T12:23:13.452Z,13.05
2016-10-11T12:24:13.472Z,12.88
2016-10-11T12:25:13.491Z,12.9
2016-10-11T12:26:13.508Z,12.91
2016-10-11T12:27:13.596Z,13.02
2016-10-11T12:28:13.558Z,12.84
2016-10-11T12:29:13.584Z,12.75
2016-10-11T12:30:13.601Z,12.84
2016-10-11T12:31:13.624Z,12.88
2016-10-11T12:32:13.641Z,12.8
2016-10-11T12:33:13.655Z,12.91
2016-10-11T12:34:13.668Z,12.87
2016-10-11T12:35:13.729Z,12.91
2016-10-11T12:36:13.737Z,12.9
2016-10-11T12:37:13.740Z,12.78
2016-10-11T12:38:13.751Z,12.84
2016-10-11T12:39:13.794Z,12.88
2016-10-11T12:40:13.520Z,12.65
2016-10-11T12:41:13.818Z,12.57
2016-10-11T12:42:13.905Z,12.69
2016-10-11T12:43:13.854Z,12.75
2016-10-11T12:44:13.882Z,12.73
2016-10-11T12:45:13.897Z,12.69
2016-10-11T12:46:14.030Z,12.72
2016-10-11T12:47:13.938Z,12.68
2016-10-11T12:48:14.012Z,12.73
2016-10-11T12:49:13.993Z,12.65
2016-10-11T12:50:14.024Z,12.51
2016-10-11T12:51:14.028Z,12.32
2016-10-11T12:52:14.089Z,12.33
2016-10-11T12:53:14.062Z,12.28
2016-10-11T12:54:13.767Z,12.14
2016-10-11T12:55:14.107Z,12.15
2016-10-11T12:56:14.111Z,12.17
2016-10-11T12:57:14.207Z,12.12
2016-10-11T12:58:13.853Z,12.18
2016-10-11T12:59:14.196Z,12.21